»·PEaware :: ASA3004 KGEG-KPDX

ASA3004 :: KGEG-KPDX

FLIGHT INFORMATION

Flight Status: Arrived
Operator:
Alaska Airlines
More flights by this operator :: More flights under this callsign
Pilot: Kyle M. (9350)
Aircraft: BOEING 737-300
(B733)
More flights by this aircraft type
Origin: KGEG Spokane Intl
United States
Destination: KPDX Portland Intl
United States
More flights between these airports :: More routes between these airports
Route: +GEG6 ZEGRO YENTL HHOOD4
File this flight plan on PilotEdge
Remarks: RMK / SIMBRIEF
Altitude:
(Current/Filed)
32,000ft
Speed:
(Current/Filed)
422kts
Departed: 27-Jul-20 01:03 PM
Arrived: 27-Jul-20 01:48 PM
Distance/Time
Traveled:
242nm/0:45
Distance/Time
To Go:
Arrived

Flight Plot

Page will automatically refresh every two minutes.


Map Options




Map Legend


Flown Route
Filed Route
Departure Airport
Arrival Airport
Navaid (VOR, NDB)
Fix

Horizontal Profiles

Position Reports

Time Latitude Longitude Heading Altitude Ground
Speed
27-Jul-20 12:39 47.625226 -117.534060 316 2390ft 0kts
27-Jul-20 12:40 47.625226 -117.534060 316 2390ft 0kts
27-Jul-20 12:41 47.625226 -117.534060 316 2390ft 0kts
27-Jul-20 12:42 47.625226 -117.534060 316 2390ft 0kts
27-Jul-20 12:43 47.625226 -117.534060 316 2390ft 0kts
27-Jul-20 12:44 47.625226 -117.534060 316 2390ft 0kts
27-Jul-20 12:45 47.625226 -117.534060 316 2390ft 0kts
27-Jul-20 12:46 47.625226 -117.534060 316 2390ft 0kts
27-Jul-20 12:47 47.625226 -117.534060 316 2390ft 0kts
27-Jul-20 12:48 47.625226 -117.534060 316 2390ft 0kts
27-Jul-20 12:49 47.625226 -117.534060 316 2390ft 0kts
27-Jul-20 12:50 47.625226 -117.534060 316 2390ft 0kts
27-Jul-20 12:51 47.625226 -117.534060 316 2390ft 0kts
27-Jul-20 12:52 47.625226 -117.534060 316 2390ft 0kts
27-Jul-20 12:53 47.625226 -117.534060 316 2390ft 0kts
27-Jul-20 12:54 47.624914 -117.533619 315 2390ft 2kts
27-Jul-20 12:55 47.624615 -117.533694 45 2390ft 0kts
27-Jul-20 12:56 47.624616 -117.533693 45 2390ft 0kts
27-Jul-20 12:57 47.624624 -117.533680 46 2390ft 0kts
27-Jul-20 12:58 47.625040 -117.532395 117 2390ft 7kts
27-Jul-20 12:59 47.627632 -117.527715 44 2390ft 19kts
27-Jul-20 13:00 47.631572 -117.521782 44 2390ft 19kts
27-Jul-20 13:01 47.631025 -117.518682 199 2390ft 11kts
27-Jul-20 13:02 47.613078 -117.545428 224 2897ft 178kts
27-Jul-20 13:03 47.571919 -117.601000 223 5237ft 232kts
27-Jul-20 13:04 47.527171 -117.682971 229 7722ft 279kts
27-Jul-20 13:05 47.476603 -117.774743 230 10792ft 299kts
27-Jul-20 13:06 47.422594 -117.881219 233 12937ft 345kts
27-Jul-20 13:07 47.365077 -118.000965 233 15583ft 363kts
27-Jul-20 13:08 47.305416 -118.124850 233 18094ft 376kts
27-Jul-20 13:09 47.243322 -118.253218 233 20371ft 390kts
27-Jul-20 13:10 47.179006 -118.385555 232 22437ft 404kts
27-Jul-20 13:11 47.112117 -118.522510 232 24331ft 417kts
27-Jul-20 13:12 47.043627 -118.662057 231 26087ft 428kts
27-Jul-20 13:13 46.972796 -118.805865 231 27761ft 438kts
27-Jul-20 13:14 46.900493 -118.951677 231 29617ft 440kts
27-Jul-20 13:15 46.828165 -119.096263 231 31627ft 432kts
27-Jul-20 13:16 46.755750 -119.240272 231 31956ft 451kts
27-Jul-20 13:17 46.680480 -119.389472 231 31997ft 456kts
27-Jul-20 13:18 46.604899 -119.538548 231 31993ft 456kts
27-Jul-20 13:19 46.528744 -119.688045 230 31976ft 457kts
27-Jul-20 13:20 46.452572 -119.836860 230 31993ft 458kts
27-Jul-20 13:21 46.375746 -119.985976 230 31992ft 459kts
27-Jul-20 13:22 46.298622 -120.134851 230 32002ft 459kts
27-Jul-20 13:23 46.221489 -120.282941 230 32012ft 458kts
27-Jul-20 13:24 46.143959 -120.431009 230 32002ft 458kts
27-Jul-20 13:25 46.066516 -120.578126 230 31994ft 458kts
27-Jul-20 13:26 45.991046 -120.720951 230 31991ft 458kts
27-Jul-20 13:27 45.913353 -120.867099 230 31993ft 457kts
27-Jul-20 13:28 45.835046 -121.012463 230 31885ft 459kts
27-Jul-20 13:29 45.756372 -121.157521 230 30105ft 460kts
27-Jul-20 13:30 45.676873 -121.303575 230 28308ft 464kts
27-Jul-20 13:31 45.600753 -121.453906 246 25694ft 464kts
27-Jul-20 13:32 45.555166 -121.623631 246 22703ft 452kts
27-Jul-20 13:33 45.530625 -121.794752 274 19652ft 442kts
27-Jul-20 13:34 45.539585 -121.966822 281 16633ft 428kts
27-Jul-20 13:35 45.572829 -122.123479 285 13617ft 390kts
27-Jul-20 13:36 45.602635 -122.266276 285 10609ft 361kts
27-Jul-20 13:37 45.629437 -122.397043 286 8902ft 310kts
27-Jul-20 13:38 45.657119 -122.502797 297 8044ft 261kts
27-Jul-20 13:39 45.689645 -122.592955 297 6475ft 250kts
27-Jul-20 13:40 45.722411 -122.681912 297 4665ft 251kts
27-Jul-20 13:41 45.752812 -122.770795 272 3173ft 235kts
27-Jul-20 13:42 45.711281 -122.824460 162 3041ft 214kts
27-Jul-20 13:43 45.662641 -122.783205 122 2944ft 201kts
27-Jul-20 13:44 45.639444 -122.709545 118 2004ft 186kts
27-Jul-20 13:45 45.615811 -122.649758 118 882ft 155kts
27-Jul-20 13:46 45.595514 -122.597490 117 103ft 148kts
27-Jul-20 13:47 45.584420 -122.569098 131 29ft 14kts
27-Jul-20 13:48 45.584450 -122.572282 299 29ft 16kts
27-Jul-20 13:49 45.587089 -122.579052 298 29ft 21kts
27-Jul-20 13:51 45.589556 -122.586471 263 29ft 15kts
27-Jul-20 13:52 45.591686 -122.593008 298 29ft 21kts
27-Jul-20 13:53 45.591508 -122.599047 236 29ft 16kts
27-Jul-20 13:54 45.588865 -122.599983 119 29ft 15kts
27-Jul-20 13:55 45.588801 -122.597423 28 29ft 0kts

Navigation Log

Ident Type
Flight plan parsing failed, navigation log unavailable